sensor_id;sensor_type;location;lat;lon;timestamp;temperature;humidity
64198;SHT31;50512;53.666;9.700;2022-08-04T00:02:14;20.14;94.59
64198;SHT31;50512;53.666;9.700;2022-08-04T00:04:46;20.16;94.52
64198;SHT31;50512;53.666;9.700;2022-08-04T00:07:15;20.16;94.79
64198;SHT31;50512;53.666;9.700;2022-08-04T00:09:48;20.16;95.14
64198;SHT31;50512;53.666;9.700;2022-08-04T00:12:16;20.20;94.94
64198;SHT31;50512;53.666;9.700;2022-08-04T00:14:46;20.26;94.81
64198;SHT31;50512;53.666;9.700;2022-08-04T00:17:13;20.24;94.61
64198;SHT31;50512;53.666;9.700;2022-08-04T00:19:40;20.28;94.70
64198;SHT31;50512;53.666;9.700;2022-08-04T00:22:09;20.35;94.54
64198;SHT31;50512;53.666;9.700;2022-08-04T00:24:36;20.24;94.63
64198;SHT31;50512;53.666;9.700;2022-08-04T00:27:02;20.23;94.67
64198;SHT31;50512;53.666;9.700;2022-08-04T00:29:29;20.20;95.06
64198;SHT31;50512;53.666;9.700;2022-08-04T00:31:55;20.23;94.63
64198;SHT31;50512;53.666;9.700;2022-08-04T00:34:22;20.17;94.59
64198;SHT31;50512;53.666;9.700;2022-08-04T00:36:48;20.18;94.52
64198;SHT31;50512;53.666;9.700;2022-08-04T00:39:15;20.26;94.30
64198;SHT31;50512;53.666;9.700;2022-08-04T00:41:54;20.28;93.75
64198;SHT31;50512;53.666;9.700;2022-08-04T00:44:36;20.18;94.09
64198;SHT31;50512;53.666;9.700;2022-08-04T00:47:23;20.17;94.12
64198;SHT31;50512;53.666;9.700;2022-08-04T00:50:03;20.16;94.31
64198;SHT31;50512;53.666;9.700;2022-08-04T00:52:36;20.16;94.47
64198;SHT31;50512;53.666;9.700;2022-08-04T00:55:22;20.09;94.10
64198;SHT31;50512;53.666;9.700;2022-08-04T00:58:04;20.01;94.04
64198;SHT31;50512;53.666;9.700;2022-08-04T01:00:43;19.97;94.73
64198;SHT31;50512;53.666;9.700;2022-08-04T01:03:20;19.92;95.00
64198;SHT31;50512;53.666;9.700;2022-08-04T01:05:59;20.01;94.54
64198;SHT31;50512;53.666;9.700;2022-08-04T01:08:40;20.00;94.42
64198;SHT31;50512;53.666;9.700;2022-08-04T01:11:18;19.99;94.78
64198;SHT31;50512;53.666;9.700;2022-08-04T01:14:10;19.92;94.35
64198;SHT31;50512;53.666;9.700;2022-08-04T01:16:47;19.93;93.81
64198;SHT31;50512;53.666;9.700;2022-08-04T01:19:29;19.90;94.24
64198;SHT31;50512;53.666;9.700;2022-08-04T01:22:17;19.92;94.58
64198;SHT31;50512;53.666;9.700;2022-08-04T01:25:02;19.90;94.49
64198;SHT31;50512;53.666;9.700;2022-08-04T01:27:46;19.94;95.00
64198;SHT31;50512;53.666;9.700;2022-08-04T01:30:15;19.96;94.84
64198;SHT31;50512;53.666;9.700;2022-08-04T01:32:46;20.01;94.94
64198;SHT31;50512;53.666;9.700;2022-08-04T01:35:20;20.01;94.55
64198;SHT31;50512;53.666;9.700;2022-08-04T01:37:48;20.05;94.54
64198;SHT31;50512;53.666;9.700;2022-08-04T01:40:17;20.00;94.87
64198;SHT31;50512;53.666;9.700;2022-08-04T01:42:45;20.00;94.98
64198;SHT31;50512;53.666;9.700;2022-08-04T01:45:14;20.06;94.74
64198;SHT31;50512;53.666;9.700;2022-08-04T01:47:42;19.99;94.70
64198;SHT31;50512;53.666;9.700;2022-08-04T01:50:09;20.03;94.34
64198;SHT31;50512;53.666;9.700;2022-08-04T01:52:35;19.99;94.27
64198;SHT31;50512;53.666;9.700;2022-08-04T01:55:03;20.03;93.90
64198;SHT31;50512;53.666;9.700;2022-08-04T01:57:32;20.01;93.73
64198;SHT31;50512;53.666;9.700;2022-08-04T01:59:58;19.99;93.71
64198;SHT31;50512;53.666;9.700;2022-08-04T02:02:25;20.06;93.89
64198;SHT31;50512;53.666;9.700;2022-08-04T02:04:51;19.97;94.01
64198;SHT31;50512;53.666;9.700;2022-08-04T02:07:24;19.94;94.21
64198;SHT31;50512;53.666;9.700;2022-08-04T02:10:02;19.93;93.58
64198;SHT31;50512;53.666;9.700;2022-08-04T02:12:41;19.92;93.49
64198;SHT31;50512;53.666;9.700;2022-08-04T02:15:24;19.89;92.94
64198;SHT31;50512;53.666;9.700;2022-08-04T02:17:58;19.93;93.49
64198;SHT31;50512;53.666;9.700;2022-08-04T02:20:29;19.86;93.29
64198;SHT31;50512;53.666;9.700;2022-08-04T02:22:58;19.86;93.12
64198;SHT31;50512;53.666;9.700;2022-08-04T02:25:25;19.78;93.02
64198;SHT31;50512;53.666;9.700;2022-08-04T02:27:57;19.71;93.39
64198;SHT31;50512;53.666;9.700;2022-08-04T02:30:33;19.63;93.54
64198;SHT31;50512;53.666;9.700;2022-08-04T02:33:03;19.54;93.68
64198;SHT31;50512;53.666;9.700;2022-08-04T02:35:34;19.50;94.02
64198;SHT31;50512;53.666;9.700;2022-08-04T02:38:11;19.47;94.17
64198;SHT31;50512;53.666;9.700;2022-08-04T02:40:38;19.39;93.90
64198;SHT31;50512;53.666;9.700;2022-08-04T02:43:05;19.39;94.54
64198;SHT31;50512;53.666;9.700;2022-08-04T02:45:35;19.36;94.48
64198;SHT31;50512;53.666;9.700;2022-08-04T02:48:02;19.32;94.85
64198;SHT31;50512;53.666;9.700;2022-08-04T02:50:29;19.34;95.08
64198;SHT31;50512;53.666;9.700;2022-08-04T02:52:59;19.34;95.17
64198;SHT31;50512;53.666;9.700;2022-08-04T02:55:26;19.32;94.77
64198;SHT31;50512;53.666;9.700;2022-08-04T02:57:53;19.34;94.90
64198;SHT31;50512;53.666;9.700;2022-08-04T03:00:21;19.34;95.42
64198;SHT31;50512;53.666;9.700;2022-08-04T03:02:55;19.30;95.40
64198;SHT31;50512;53.666;9.700;2022-08-04T03:05:25;19.32;95.65
64198;SHT31;50512;53.666;9.700;2022-08-04T03:08:11;19.41;95.63
64198;SHT31;50512;53.666;9.700;2022-08-04T03:11:04;19.51;95.66
64198;SHT31;50512;53.666;9.700;2022-08-04T03:13:49;19.54;95.50
64198;SHT31;50512;53.666;9.700;2022-08-04T03:16:55;19.52;95.33
64198;SHT31;50512;53.666;9.700;2022-08-04T03:22:34;19.55;94.99
64198;SHT31;50512;53.666;9.700;2022-08-04T03:25:23;19.48;95.03
64198;SHT31;50512;53.666;9.700;2022-08-04T03:31:09;19.52;94.97
64198;SHT31;50512;53.666;9.700;2022-08-04T03:34:10;19.50;94.54
64198;SHT31;50512;53.666;9.700;2022-08-04T03:36:54;19.44;94.30
64198;SHT31;50512;53.666;9.700;2022-08-04T03:39:48;19.45;94.86
64198;SHT31;50512;53.666;9.700;2022-08-04T03:42:38;19.39;94.59
64198;SHT31;50512;53.666;9.700;2022-08-04T03:45:52;19.44;94.65
64198;SHT31;50512;53.666;9.700;2022-08-04T03:51:35;19.39;94.87
64198;SHT31;50512;53.666;9.700;2022-08-04T04:00:07;19.50;94.66
64198;SHT31;50512;53.666;9.700;2022-08-04T04:03:12;19.47;94.71
64198;SHT31;50512;53.666;9.700;2022-08-04T04:06:17;19.57;94.35
64198;SHT31;50512;53.666;9.700;2022-08-04T04:09:04;19.61;94.27
64198;SHT31;50512;53.666;9.700;2022-08-04T04:11:52;19.65;93.99
64198;SHT31;50512;53.666;9.700;2022-08-04T04:14:45;19.78;93.32
64198;SHT31;50512;53.666;9.700;2022-08-04T04:17:33;19.69;93.51
64198;SHT31;50512;53.666;9.700;2022-08-04T04:20:24;19.72;93.43
64198;SHT31;50512;53.666;9.700;2022-08-04T04:22:59;19.75;93.38
64198;SHT31;50512;53.666;9.700;2022-08-04T04:25:33;19.93;92.91
64198;SHT31;50512;53.666;9.700;2022-08-04T04:28:29;19.90;93.14
64198;SHT31;50512;53.666;9.700;2022-08-04T04:31:02;20.03;92.69
64198;SHT31;50512;53.666;9.700;2022-08-04T04:33:43;20.03;92.47
64198;SHT31;50512;53.666;9.700;2022-08-04T04:36:18;20.12;92.57
64198;SHT31;50512;53.666;9.700;2022-08-04T04:39:07;20.21;92.18
64198;SHT31;50512;53.666;9.700;2022-08-04T04:41:52;20.26;91.90
64198;SHT31;50512;53.666;9.700;2022-08-04T04:44:46;20.38;91.68
64198;SHT31;50512;53.666;9.700;2022-08-04T04:47:23;20.47;91.47
64198;SHT31;50512;53.666;9.700;2022-08-04T04:49:58;20.54;91.06
64198;SHT31;50512;53.666;9.700;2022-08-04T04:52:27;20.56;91.20
64198;SHT31;50512;53.666;9.700;2022-08-04T04:54:59;20.67;90.94
64198;SHT31;50512;53.666;9.700;2022-08-04T04:57:28;20.62;90.98
64198;SHT31;50512;53.666;9.700;2022-08-04T04:59:57;20.71;90.66
64198;SHT31;50512;53.666;9.700;2022-08-04T05:02:42;20.72;90.83
64198;SHT31;50512;53.666;9.700;2022-08-04T05:05:32;20.83;90.37
64198;SHT31;50512;53.666;9.700;2022-08-04T05:11:09;20.99;90.11
64198;SHT31;50512;53.666;9.700;2022-08-04T05:13:42;21.10;89.88
64198;SHT31;50512;53.666;9.700;2022-08-04T05:16:15;21.23;89.69
64198;SHT31;50512;53.666;9.700;2022-08-04T05:18:46;21.24;89.58
64198;SHT31;50512;53.666;9.700;2022-08-04T05:21:25;21.44;88.75
64198;SHT31;50512;53.666;9.700;2022-08-04T05:23:59;21.59;88.38
64198;SHT31;50512;53.666;9.700;2022-08-04T05:26:30;21.66;88.09
64198;SHT31;50512;53.666;9.700;2022-08-04T05:28:58;21.78;87.96
64198;SHT31;50512;53.666;9.700;2022-08-04T05:31:30;21.85;88.02
64198;SHT31;50512;53.666;9.700;2022-08-04T05:34:02;21.93;87.67
64198;SHT31;50512;53.666;9.700;2022-08-04T05:36:32;22.14;87.16
64198;SHT31;50512;53.666;9.700;2022-08-04T05:39:00;22.26;86.49
64198;SHT31;50512;53.666;9.700;2022-08-04T05:41:26;22.40;86.17
64198;SHT31;50512;53.666;9.700;2022-08-04T05:43:54;22.53;85.90
64198;SHT31;50512;53.666;9.700;2022-08-04T05:46:20;22.63;85.67
64198;SHT31;50512;53.666;9.700;2022-08-04T05:48:45;22.76;84.82
64198;SHT31;50512;53.666;9.700;2022-08-04T05:51:13;22.92;84.44
64198;SHT31;50512;53.666;9.700;2022-08-04T05:53:40;22.96;84.82
64198;SHT31;50512;53.666;9.700;2022-08-04T05:56:07;22.96;85.09
64198;SHT31;50512;53.666;9.700;2022-08-04T05:58:33;22.95;84.69
64198;SHT31;50512;53.666;9.700;2022-08-04T06:01:00;23.03;84.84
64198;SHT31;50512;53.666;9.700;2022-08-04T06:03:26;23.03;84.43
64198;SHT31;50512;53.666;9.700;2022-08-04T06:05:53;23.06;84.91
64198;SHT31;50512;53.666;9.700;2022-08-04T06:08:20;23.16;84.07
64198;SHT31;50512;53.666;9.700;2022-08-04T06:10:47;23.29;84.06
64198;SHT31;50512;53.666;9.700;2022-08-04T06:13:16;23.33;84.03
64198;SHT31;50512;53.666;9.700;2022-08-04T06:15:43;23.39;83.81
64198;SHT31;50512;53.666;9.700;2022-08-04T06:18:10;23.47;84.44
64198;SHT31;50512;53.666;9.700;2022-08-04T06:20:37;23.64;83.61
64198;SHT31;50512;53.666;9.700;2022-08-04T06:23:07;23.86;83.07
64198;SHT31;50512;53.666;9.700;2022-08-04T06:25:38;23.89;81.65
64198;SHT31;50512;53.666;9.700;2022-08-04T06:28:07;24.05;81.99
64198;SHT31;50512;53.666;9.700;2022-08-04T06:30:33;24.12;81.51
64198;SHT31;50512;53.666;9.700;2022-08-04T06:33:00;24.27;80.63
64198;SHT31;50512;53.666;9.700;2022-08-04T06:35:27;24.40;79.87
64198;SHT31;50512;53.666;9.700;2022-08-04T06:37:54;24.56;79.97
64198;SHT31;50512;53.666;9.700;2022-08-04T06:40:22;24.74;77.98
64198;SHT31;50512;53.666;9.700;2022-08-04T06:42:50;24.87;77.72
64198;SHT31;50512;53.666;9.700;2022-08-04T06:45:18;25.11;77.95
64198;SHT31;50512;53.666;9.700;2022-08-04T06:47:45;25.22;76.08
64198;SHT31;50512;53.666;9.700;2022-08-04T06:50:11;25.42;76.65
64198;SHT31;50512;53.666;9.700;2022-08-04T06:52:38;25.56;75.71
64198;SHT31;50512;53.666;9.700;2022-08-04T06:55:04;25.73;73.93
64198;SHT31;50512;53.666;9.700;2022-08-04T06:57:31;25.81;73.81
64198;SHT31;50512;53.666;9.700;2022-08-04T07:00:01;25.97;73.74
64198;SHT31;50512;53.666;9.700;2022-08-04T07:02:29;26.01;72.98
64198;SHT31;50512;53.666;9.700;2022-08-04T07:04:55;26.05;73.56
64198;SHT31;50512;53.666;9.700;2022-08-04T07:07:23;26.05;72.59
64198;SHT31;50512;53.666;9.700;2022-08-04T07:09:49;26.25;71.59
64198;SHT31;50512;53.666;9.700;2022-08-04T07:12:16;26.43;71.53
64198;SHT31;50512;53.666;9.700;2022-08-04T07:14:42;26.72;69.52
64198;SHT31;50512;53.666;9.700;2022-08-04T07:17:09;26.90;69.06
64198;SHT31;50512;53.666;9.700;2022-08-04T07:19:35;27.19;66.60
64198;SHT31;50512;53.666;9.700;2022-08-04T07:22:01;27.41;66.62
64198;SHT31;50512;53.666;9.700;2022-08-04T07:24:31;27.45;67.41
64198;SHT31;50512;53.666;9.700;2022-08-04T07:26:56;27.50;64.72
64198;SHT31;50512;53.666;9.700;2022-08-04T07:29:22;27.60;65.42
64198;SHT31;50512;53.666;9.700;2022-08-04T07:31:48;27.82;66.02
64198;SHT31;50512;53.666;9.700;2022-08-04T07:34:16;28.15;63.12
64198;SHT31;50512;53.666;9.700;2022-08-04T07:36:43;28.37;64.65
64198;SHT31;50512;53.666;9.700;2022-08-04T07:39:08;28.63;63.29
64198;SHT31;50512;53.666;9.700;2022-08-04T07:41:34;28.80;62.82
64198;SHT31;50512;53.666;9.700;2022-08-04T07:44:00;28.99;61.57
64198;SHT31;50512;53.666;9.700;2022-08-04T07:46:27;29.14;62.04
64198;SHT31;50512;53.666;9.700;2022-08-04T07:48:52;29.42;59.07
64198;SHT31;50512;53.666;9.700;2022-08-04T07:51:20;29.66;59.87
64198;SHT31;50512;53.666;9.700;2022-08-04T07:53:46;30.16;56.93
64198;SHT31;50512;53.666;9.700;2022-08-04T07:56:12;30.61;56.69
64198;SHT31;50512;53.666;9.700;2022-08-04T07:58:39;31.59;54.15
64198;SHT31;50512;53.666;9.700;2022-08-04T08:01:04;32.41;51.40
64198;SHT31;50512;53.666;9.700;2022-08-04T08:03:30;32.89;49.93
64198;SHT31;50512;53.666;9.700;2022-08-04T08:05:56;33.46;48.27
64198;SHT31;50512;53.666;9.700;2022-08-04T08:08:23;33.95;49.63
64198;SHT31;50512;53.666;9.700;2022-08-04T08:10:48;34.26;46.49
64198;SHT31;50512;53.666;9.700;2022-08-04T08:13:15;34.46;43.78
64198;SHT31;50512;53.666;9.700;2022-08-04T08:15:43;34.38;43.74
64198;SHT31;50512;53.666;9.700;2022-08-04T08:18:09;34.33;43.24
64198;SHT31;50512;53.666;9.700;2022-08-04T08:20:35;34.29;43.71
64198;SHT31;50512;53.666;9.700;2022-08-04T08:23:01;33.87;43.22
64198;SHT31;50512;53.666;9.700;2022-08-04T08:25:31;34.11;44.12
64198;SHT31;50512;53.666;9.700;2022-08-04T08:27:56;34.04;44.66
64198;SHT31;50512;53.666;9.700;2022-08-04T08:30:22;33.77;44.02
64198;SHT31;50512;53.666;9.700;2022-08-04T08:32:47;33.42;43.94
64198;SHT31;50512;53.666;9.700;2022-08-04T08:35:13;33.42;46.11
64198;SHT31;50512;53.666;9.700;2022-08-04T08:37:44;33.39;45.83
64198;SHT31;50512;53.666;9.700;2022-08-04T08:40:25;33.58;45.91
64198;SHT31;50512;53.666;9.700;2022-08-04T08:43:11;33.66;45.12
64198;SHT31;50512;53.666;9.700;2022-08-04T08:49:17;33.98;43.62
64198;SHT31;50512;53.666;9.700;2022-08-04T08:51:54;34.11;43.10
64198;SHT31;50512;53.666;9.700;2022-08-04T08:54:52;34.40;42.75
64198;SHT31;50512;53.666;9.700;2022-08-04T08:57:32;34.50;44.47
64198;SHT31;50512;53.666;9.700;2022-08-04T09:00:08;34.71;43.00
64198;SHT31;50512;53.666;9.700;2022-08-04T09:02:57;34.76;43.00
64198;SHT31;50512;53.666;9.700;2022-08-04T09:05:42;34.42;44.14
64198;SHT31;50512;53.666;9.700;2022-08-04T09:08:21;34.31;43.62
64198;SHT31;50512;53.666;9.700;2022-08-04T09:10:53;34.55;44.12
64198;SHT31;50512;53.666;9.700;2022-08-04T09:13:24;34.87;44.05
64198;SHT31;50512;53.666;9.700;2022-08-04T09:15:57;35.24;42.70
64198;SHT31;50512;53.666;9.700;2022-08-04T09:18:27;35.34;40.52
64198;SHT31;50512;53.666;9.700;2022-08-04T09:21:03;35.60;42.87
64198;SHT31;50512;53.666;9.700;2022-08-04T09:23:35;35.66;41.17
64198;SHT31;50512;53.666;9.700;2022-08-04T09:26:14;35.45;40.96
64198;SHT31;50512;53.666;9.700;2022-08-04T09:28:50;35.22;39.62
64198;SHT31;50512;53.666;9.700;2022-08-04T09:31:22;35.19;39.89
64198;SHT31;50512;53.666;9.700;2022-08-04T09:33:55;35.22;40.93
64198;SHT31;50512;53.666;9.700;2022-08-04T09:36:28;35.22;40.25
64198;SHT31;50512;53.666;9.700;2022-08-04T09:39:06;35.43;40.20
64198;SHT31;50512;53.666;9.700;2022-08-04T09:41:47;35.22;39.30
64198;SHT31;50512;53.666;9.700;2022-08-04T09:44:20;34.66;41.72
64198;SHT31;50512;53.666;9.700;2022-08-04T09:46:58;34.45;41.22
64198;SHT31;50512;53.666;9.700;2022-08-04T09:49:34;34.46;42.79
64198;SHT31;50512;53.666;9.700;2022-08-04T09:52:08;34.46;43.13
64198;SHT31;50512;53.666;9.700;2022-08-04T09:54:44;34.53;42.09
64198;SHT31;50512;53.666;9.700;2022-08-04T09:57:16;34.43;46.31
64198;SHT31;50512;53.666;9.700;2022-08-04T09:59:53;34.12;44.83
64198;SHT31;50512;53.666;9.700;2022-08-04T10:02:23;34.00;44.84
64198;SHT31;50512;53.666;9.700;2022-08-04T10:04:52;34.05;45.38
64198;SHT31;50512;53.666;9.700;2022-08-04T10:07:33;34.18;44.24
64198;SHT31;50512;53.666;9.700;2022-08-04T10:10:14;34.43;45.58
64198;SHT31;50512;53.666;9.700;2022-08-04T10:12:51;34.61;42.80
64198;SHT31;50512;53.666;9.700;2022-08-04T10:15:27;34.64;38.99
64198;SHT31;50512;53.666;9.700;2022-08-04T10:18:07;34.68;39.25
64198;SHT31;50512;53.666;9.700;2022-08-04T10:21:00;34.68;38.54
64198;SHT31;50512;53.666;9.700;2022-08-04T10:23:35;34.40;38.78
64198;SHT31;50512;53.666;9.700;2022-08-04T10:26:14;34.29;39.08
64198;SHT31;50512;53.666;9.700;2022-08-04T10:28:49;34.29;40.37
64198;SHT31;50512;53.666;9.700;2022-08-04T10:31:19;34.26;40.11
64198;SHT31;50512;53.666;9.700;2022-08-04T10:33:53;34.26;41.63
64198;SHT31;50512;53.666;9.700;2022-08-04T10:36:26;34.16;40.68
64198;SHT31;50512;53.666;9.700;2022-08-04T10:38:57;33.91;41.81
64198;SHT31;50512;53.666;9.700;2022-08-04T10:41:31;33.64;40.50
64198;SHT31;50512;53.666;9.700;2022-08-04T10:44:05;33.90;44.04
64198;SHT31;50512;53.666;9.700;2022-08-04T10:46:40;34.06;42.08
64198;SHT31;50512;53.666;9.700;2022-08-04T10:49:15;34.15;40.90
64198;SHT31;50512;53.666;9.700;2022-08-04T10:51:45;34.29;42.02
64198;SHT31;50512;53.666;9.700;2022-08-04T10:54:17;34.76;42.11
64198;SHT31;50512;53.666;9.700;2022-08-04T10:56:49;34.93;40.38
64198;SHT31;50512;53.666;9.700;2022-08-04T10:59:22;34.77;39.23
64198;SHT31;50512;53.666;9.700;2022-08-04T11:01:51;34.66;39.10
64198;SHT31;50512;53.666;9.700;2022-08-04T11:04:25;34.98;40.64
64198;SHT31;50512;53.666;9.700;2022-08-04T11:06:51;35.00;40.21
64198;SHT31;50512;53.666;9.700;2022-08-04T11:09:18;34.91;39.56
64198;SHT31;50512;53.666;9.700;2022-08-04T11:11:48;35.19;41.54
64198;SHT31;50512;53.666;9.700;2022-08-04T11:14:15;35.52;40.98
64198;SHT31;50512;53.666;9.700;2022-08-04T11:16:46;35.56;36.36
64198;SHT31;50512;53.666;9.700;2022-08-04T11:19:24;35.22;35.89
64198;SHT31;50512;53.666;9.700;2022-08-04T11:21:55;35.25;35.47
64198;SHT31;50512;53.666;9.700;2022-08-04T11:24:25;35.29;35.63
64198;SHT31;50512;53.666;9.700;2022-08-04T11:26:57;35.01;34.19
64198;SHT31;50512;53.666;9.700;2022-08-04T11:29:28;35.07;37.22
64198;SHT31;50512;53.666;9.700;2022-08-04T11:31:58;35.21;34.78
64198;SHT31;50512;53.666;9.700;2022-08-04T11:34:26;35.02;34.84
64198;SHT31;50512;53.666;9.700;2022-08-04T11:36:58;34.77;35.64
64198;SHT31;50512;53.666;9.700;2022-08-04T11:39:27;34.67;36.16
64198;SHT31;50512;53.666;9.700;2022-08-04T11:41:57;34.82;35.25
64198;SHT31;50512;53.666;9.700;2022-08-04T11:44:29;35.11;36.02
64198;SHT31;50512;53.666;9.700;2022-08-04T11:46:58;35.31;36.48
64198;SHT31;50512;53.666;9.700;2022-08-04T11:49:32;35.27;35.99
64198;SHT31;50512;53.666;9.700;2022-08-04T11:51:59;35.31;36.45
64198;SHT31;50512;53.666;9.700;2022-08-04T11:54:26;35.48;36.59
64198;SHT31;50512;53.666;9.700;2022-08-04T11:56:52;35.24;34.90
64198;SHT31;50512;53.666;9.700;2022-08-04T11:59:21;35.00;36.41
64198;SHT31;50512;53.666;9.700;2022-08-04T12:01:58;34.93;36.44
64198;SHT31;50512;53.666;9.700;2022-08-04T12:04:36;34.98;36.32
64198;SHT31;50512;53.666;9.700;2022-08-04T12:07:13;35.14;36.92
64198;SHT31;50512;53.666;9.700;2022-08-04T12:09:45;35.37;37.63
64198;SHT31;50512;53.666;9.700;2022-08-04T12:12:17;35.21;37.01
64198;SHT31;50512;53.666;9.700;2022-08-04T12:15:00;35.12;37.98
64198;SHT31;50512;53.666;9.700;2022-08-04T12:17:28;34.79;37.30
64198;SHT31;50512;53.666;9.700;2022-08-04T12:20:02;34.77;37.09
64198;SHT31;50512;53.666;9.700;2022-08-04T12:22:34;34.76;36.95
64198;SHT31;50512;53.666;9.700;2022-08-04T12:25:02;35.00;37.28
64198;SHT31;50512;53.666;9.700;2022-08-04T12:27:32;34.95;37.23
64198;SHT31;50512;53.666;9.700;2022-08-04T12:30:00;34.91;37.36
64198;SHT31;50512;53.666;9.700;2022-08-04T12:32:30;34.97;38.05
64198;SHT31;50512;53.666;9.700;2022-08-04T12:35:02;35.10;36.63
64198;SHT31;50512;53.666;9.700;2022-08-04T12:37:53;35.34;37.67
64198;SHT31;50512;53.666;9.700;2022-08-04T12:40:24;35.50;35.14
64198;SHT31;50512;53.666;9.700;2022-08-04T12:42:55;35.41;35.93
64198;SHT31;50512;53.666;9.700;2022-08-04T12:45:24;35.28;34.96
64198;SHT31;50512;53.666;9.700;2022-08-04T12:47:51;35.57;37.71
64198;SHT31;50512;53.666;9.700;2022-08-04T12:50:20;35.52;34.42
64198;SHT31;50512;53.666;9.700;2022-08-04T12:52:49;35.22;35.41
64198;SHT31;50512;53.666;9.700;2022-08-04T12:55:16;35.17;36.47
64198;SHT31;50512;53.666;9.700;2022-08-04T12:57:43;35.34;35.05
64198;SHT31;50512;53.666;9.700;2022-08-04T13:00:10;35.25;35.97
64198;SHT31;50512;53.666;9.700;2022-08-04T13:02:39;35.22;37.43
64198;SHT31;50512;53.666;9.700;2022-08-04T13:05:06;35.05;37.19
64198;SHT31;50512;53.666;9.700;2022-08-04T13:07:37;34.90;38.17
64198;SHT31;50512;53.666;9.700;2022-08-04T13:10:10;34.80;37.05
64198;SHT31;50512;53.666;9.700;2022-08-04T13:12:37;34.79;37.96
64198;SHT31;50512;53.666;9.700;2022-08-04T13:15:08;34.66;36.63
64198;SHT31;50512;53.666;9.700;2022-08-04T13:17:46;34.68;38.81
64198;SHT31;50512;53.666;9.700;2022-08-04T13:20:13;34.59;38.33
64198;SHT31;50512;53.666;9.700;2022-08-04T13:22:41;34.66;38.54
64198;SHT31;50512;53.666;9.700;2022-08-04T13:25:07;34.61;38.20
64198;SHT31;50512;53.666;9.700;2022-08-04T13:27:36;34.53;37.51
64198;SHT31;50512;53.666;9.700;2022-08-04T13:30:03;34.63;39.15
64198;SHT31;50512;53.666;9.700;2022-08-04T13:32:29;34.60;40.18
64198;SHT31;50512;53.666;9.700;2022-08-04T13:34:56;34.55;38.78
64198;SHT31;50512;53.666;9.700;2022-08-04T13:37:25;34.33;39.15
64198;SHT31;50512;53.666;9.700;2022-08-04T13:39:57;34.06;40.03
64198;SHT31;50512;53.666;9.700;2022-08-04T13:42:24;33.74;42.79
64198;SHT31;50512;53.666;9.700;2022-08-04T13:44:55;33.64;40.89
64198;SHT31;50512;53.666;9.700;2022-08-04T13:47:24;33.40;41.79
64198;SHT31;50512;53.666;9.700;2022-08-04T13:50:14;33.29;40.78
64198;SHT31;50512;53.666;9.700;2022-08-04T13:52:40;33.06;43.88
64198;SHT31;50512;53.666;9.700;2022-08-04T13:55:24;32.58;51.52
64198;SHT31;50512;53.666;9.700;2022-08-04T13:57:55;32.12;58.96
64198;SHT31;50512;53.666;9.700;2022-08-04T14:00:21;31.85;63.30
64198;SHT31;50512;53.666;9.700;2022-08-04T14:02:49;31.47;65.40
64198;SHT31;50512;53.666;9.700;2022-08-04T14:05:21;31.16;66.43
64198;SHT31;50512;53.666;9.700;2022-08-04T14:07:52;30.96;66.26
64198;SHT31;50512;53.666;9.700;2022-08-04T14:10:20;30.66;66.11
64198;SHT31;50512;53.666;9.700;2022-08-04T14:12:48;30.35;67.45
64198;SHT31;50512;53.666;9.700;2022-08-04T14:15:35;30.24;67.75
64198;SHT31;50512;53.666;9.700;2022-08-04T14:18:21;30.18;67.59
64198;SHT31;50512;53.666;9.700;2022-08-04T14:21:02;29.99;68.89
64198;SHT31;50512;53.666;9.700;2022-08-04T14:23:29;29.93;68.27
64198;SHT31;50512;53.666;9.700;2022-08-04T14:26:17;29.99;68.98
64198;SHT31;50512;53.666;9.700;2022-08-04T14:28:43;30.11;65.71
64198;SHT31;50512;53.666;9.700;2022-08-04T14:31:09;30.14;65.85
64198;SHT31;50512;53.666;9.700;2022-08-04T14:33:36;30.10;65.32
64198;SHT31;50512;53.666;9.700;2022-08-04T14:36:02;30.02;63.74
64198;SHT31;50512;53.666;9.700;2022-08-04T14:38:46;29.70;63.04
64198;SHT31;50512;53.666;9.700;2022-08-04T14:41:15;29.62;62.99
64198;SHT31;50512;53.666;9.700;2022-08-04T14:43:43;29.47;63.41
64198;SHT31;50512;53.666;9.700;2022-08-04T14:46:10;29.45;63.40
64198;SHT31;50512;53.666;9.700;2022-08-04T14:48:35;29.48;63.10
64198;SHT31;50512;53.666;9.700;2022-08-04T14:51:01;29.45;63.28
64198;SHT31;50512;53.666;9.700;2022-08-04T14:53:26;29.39;62.85
64198;SHT31;50512;53.666;9.700;2022-08-04T14:55:54;29.28;62.08
64198;SHT31;50512;53.666;9.700;2022-08-04T14:58:23;29.11;62.22
64198;SHT31;50512;53.666;9.700;2022-08-04T15:00:49;28.97;61.96
64198;SHT31;50512;53.666;9.700;2022-08-04T15:03:17;28.84;62.26
64198;SHT31;50512;53.666;9.700;2022-08-04T15:05:43;28.56;62.98
64198;SHT31;50512;53.666;9.700;2022-08-04T15:10:44;28.11;64.77
64198;SHT31;50512;53.666;9.700;2022-08-04T15:13:10;27.97;65.01
64198;SHT31;50512;53.666;9.700;2022-08-04T15:15:38;27.83;64.71
64198;SHT31;50512;53.666;9.700;2022-08-04T15:18:06;27.60;65.05
64198;SHT31;50512;53.666;9.700;2022-08-04T15:20:32;27.38;64.77
64198;SHT31;50512;53.666;9.700;2022-08-04T15:23:00;27.24;64.12
64198;SHT31;50512;53.666;9.700;2022-08-04T15:25:26;27.08;64.88
64198;SHT31;50512;53.666;9.700;2022-08-04T15:27:52;26.86;65.20
64198;SHT31;50512;53.666;9.700;2022-08-04T15:30:18;26.77;65.90
64198;SHT31;50512;53.666;9.700;2022-08-04T15:32:51;26.57;67.11
64198;SHT31;50512;53.666;9.700;2022-08-04T15:35:18;26.26;67.83
64198;SHT31;50512;53.666;9.700;2022-08-04T15:37:58;26.01;68.39
64198;SHT31;50512;53.666;9.700;2022-08-04T15:40:28;25.88;68.74
64198;SHT31;50512;53.666;9.700;2022-08-04T15:43:06;25.69;69.43
64198;SHT31;50512;53.666;9.700;2022-08-04T15:45:48;25.42;70.93
64198;SHT31;50512;53.666;9.700;2022-08-04T15:48:32;25.04;72.94
64198;SHT31;50512;53.666;9.700;2022-08-04T15:51:06;24.80;73.07
64198;SHT31;50512;53.666;9.700;2022-08-04T15:56:47;24.13;77.01
64198;SHT31;50512;53.666;9.700;2022-08-04T15:59:13;23.85;77.25
64198;SHT31;50512;53.666;9.700;2022-08-04T16:01:39;23.65;79.38
64198;SHT31;50512;53.666;9.700;2022-08-04T16:04:19;23.39;81.26
64198;SHT31;50512;53.666;9.700;2022-08-04T16:06:45;23.27;82.47
64198;SHT31;50512;53.666;9.700;2022-08-04T16:09:21;23.31;83.08
64198;SHT31;50512;53.666;9.700;2022-08-04T16:11:49;23.33;83.26
64198;SHT31;50512;53.666;9.700;2022-08-04T16:14:14;23.26;83.22
64198;SHT31;50512;53.666;9.700;2022-08-04T16:16:47;23.16;82.17
64198;SHT31;50512;53.666;9.700;2022-08-04T16:19:19;23.10;83.58
64198;SHT31;50512;53.666;9.700;2022-08-04T16:21:49;23.05;83.57
64198;SHT31;50512;53.666;9.700;2022-08-04T16:24:17;23.00;83.79
64198;SHT31;50512;53.666;9.700;2022-08-04T16:26:52;22.91;83.73
64198;SHT31;50512;53.666;9.700;2022-08-04T16:29:28;22.92;84.14
64198;SHT31;50512;53.666;9.700;2022-08-04T16:32:21;22.85;83.80